createdAt,value
2018-09-18T00:00:17.804Z,993.51
2018-09-18T00:01:17.793Z,993.55
2018-09-18T00:02:17.786Z,993.56
2018-09-18T00:03:17.779Z,993.55
2018-09-18T00:04:17.770Z,993.55
2018-09-18T00:05:17.764Z,993.49
2018-09-18T00:06:17.756Z,993.53
2018-09-18T00:07:17.744Z,993.55
2018-09-18T00:08:17.744Z,993.54
2018-09-18T00:09:17.740Z,993.57
2018-09-18T00:10:17.724Z,993.53
2018-09-18T00:11:17.712Z,993.49
2018-09-18T00:12:17.704Z,993.54
2018-09-18T00:13:17.697Z,993.51
2018-09-18T00:14:17.701Z,993.51
2018-09-18T00:15:17.680Z,993.47
2018-09-18T00:16:17.674Z,993.45
2018-09-18T00:17:17.670Z,993.45
2018-09-18T00:18:17.658Z,993.44
2018-09-18T00:19:17.651Z,993.42
2018-09-18T00:20:17.644Z,993.41
2018-09-18T00:21:17.633Z,993.44
2018-09-18T00:22:17.624Z,993.41
2018-09-18T00:23:17.620Z,993.38
2018-09-18T00:24:17.602Z,993.40
2018-09-18T00:25:17.604Z,993.44
2018-09-18T00:26:17.603Z,993.42
2018-09-18T00:27:17.583Z,993.38
2018-09-18T00:28:17.579Z,993.43
2018-09-18T00:29:17.567Z,993.39
2018-09-18T00:30:17.560Z,993.38
2018-09-18T00:31:17.550Z,993.36
2018-09-18T00:32:17.551Z,993.34
2018-09-18T00:33:17.539Z,993.35
2018-09-18T00:34:17.527Z,993.35
2018-09-18T00:35:17.523Z,993.33
2018-09-18T00:36:17.510Z,993.33
2018-09-18T00:37:17.505Z,993.35
2018-09-18T00:38:17.498Z,993.31
2018-09-18T00:39:17.490Z,993.28
2018-09-18T00:40:17.477Z,993.27
2018-09-18T00:41:17.471Z,993.28
2018-09-18T00:42:17.463Z,993.26
2018-09-18T00:43:17.456Z,993.28
2018-09-18T00:44:17.452Z,993.24
2018-09-18T00:45:17.441Z,993.25
2018-09-18T00:46:17.431Z,993.26
2018-09-18T00:47:17.425Z,993.29
2018-09-18T00:48:17.408Z,993.26
2018-09-18T00:49:17.404Z,993.26
2018-09-18T00:50:17.405Z,993.27
2018-09-18T00:51:17.388Z,993.23
2018-09-18T00:52:17.380Z,993.23
2018-09-18T00:53:17.377Z,993.23
2018-09-18T00:54:17.366Z,993.22
2018-09-18T00:55:17.356Z,993.21
2018-09-18T00:56:17.386Z,993.23
2018-09-18T00:57:17.350Z,993.23
2018-09-18T00:58:17.330Z,993.20
2018-09-18T00:59:17.318Z,993.22
2018-09-18T01:00:17.318Z,993.19
2018-09-18T01:01:17.315Z,993.23
2018-09-18T01:02:17.306Z,993.23
2018-09-18T01:03:17.291Z,993.15
2018-09-18T01:04:17.284Z,993.19
2018-09-18T01:05:17.276Z,993.15
2018-09-18T01:06:17.265Z,993.17
2018-09-18T01:07:17.262Z,993.14
2018-09-18T01:08:17.246Z,993.12
2018-09-18T01:09:17.240Z,993.11
2018-09-18T01:10:17.236Z,993.09
2018-09-18T01:11:17.233Z,993.10
2018-09-18T01:12:17.216Z,993.07
2018-09-18T01:13:17.209Z,993.10
2018-09-18T01:14:17.202Z,993.09
2018-09-18T01:15:17.192Z,993.15
2018-09-18T01:16:17.185Z,993.14
2018-09-18T01:17:17.179Z,993.08
2018-09-18T01:18:17.173Z,993.11
2018-09-18T01:19:17.155Z,993.05
2018-09-18T01:20:17.162Z,993.07
2018-09-18T01:21:17.150Z,993.08
2018-09-18T01:22:17.136Z,993.05
2018-09-18T01:23:17.125Z,993.09
2018-09-18T01:24:17.119Z,993.05
2018-09-18T01:25:17.111Z,993.04
2018-09-18T01:26:17.104Z,993.04
2018-09-18T01:27:17.094Z,993.11
2018-09-18T01:28:17.086Z,993.06
2018-09-18T01:29:17.090Z,993.06
2018-09-18T01:30:17.072Z,993.05
2018-09-18T01:31:17.063Z,993.10
2018-09-18T01:32:17.046Z,993.08
2018-09-18T01:33:17.040Z,993.04
2018-09-18T01:34:17.038Z,993.05
2018-09-18T01:35:17.028Z,993.04
2018-09-18T01:36:17.016Z,993.05
2018-09-18T01:37:17.016Z,993.04
2018-09-18T01:38:17.005Z,993.06
2018-09-18T01:39:16.996Z,993.04
2018-09-18T01:40:16.989Z,992.99
2018-09-18T01:41:16.981Z,993.04
2018-09-18T01:42:16.974Z,993.07
2018-09-18T01:43:16.961Z,993.05
2018-09-18T01:44:16.957Z,993.04
2018-09-18T01:45:16.946Z,993.03
2018-09-18T01:46:16.941Z,993.05
2018-09-18T01:47:16.930Z,993.01
2018-09-18T01:48:16.922Z,993.05
2018-09-18T01:49:16.914Z,993.01
2018-09-18T01:50:16.901Z,993.02
2018-09-18T01:51:16.897Z,993.01
2018-09-18T01:52:16.891Z,993.02
2018-09-18T01:53:16.882Z,993.05
2018-09-18T01:54:16.874Z,993.05
2018-09-18T01:55:16.862Z,993.07
2018-09-18T01:56:16.855Z,993.01
2018-09-18T01:57:16.848Z,993.00
2018-09-18T01:58:16.846Z,993.05
2018-09-18T01:59:16.832Z,993.08
2018-09-18T02:00:16.824Z,993.04
2018-09-18T02:01:16.816Z,993.05
2018-09-18T02:02:16.807Z,993.10
2018-09-18T02:03:16.805Z,993.08
2018-09-18T02:04:16.793Z,993.04
2018-09-18T02:05:16.782Z,993.05
2018-09-18T02:06:16.775Z,993.04
2018-09-18T02:07:16.768Z,993.02
2018-09-18T02:08:16.759Z,993.00
2018-09-18T02:09:16.756Z,992.99
2018-09-18T02:10:16.749Z,993.03
2018-09-18T02:11:16.733Z,993.00
2018-09-18T02:12:16.726Z,993.01
2018-09-18T02:13:16.727Z,993.04
2018-09-18T02:14:16.711Z,993.06
2018-09-18T02:15:16.713Z,992.98
2018-09-18T02:16:16.697Z,992.99
2018-09-18T02:17:16.684Z,992.99
2018-09-18T02:18:16.677Z,992.99
2018-09-18T02:19:16.671Z,992.98
2018-09-18T02:20:16.660Z,992.98
2018-09-18T02:21:16.657Z,992.95
2018-09-18T02:22:16.649Z,992.97
2018-09-18T02:23:16.634Z,992.95
2018-09-18T02:24:16.624Z,992.92
2018-09-18T02:25:16.614Z,992.92
2018-09-18T02:26:16.614Z,992.89
2018-09-18T02:27:16.610Z,992.88
2018-09-18T02:28:16.596Z,992.85
2018-09-18T02:29:16.585Z,992.84
2018-09-18T02:30:16.582Z,992.87
2018-09-18T02:31:16.568Z,992.84
2018-09-18T02:32:16.560Z,992.85
2018-09-18T02:33:16.557Z,992.82
2018-09-18T02:34:16.551Z,992.82
2018-09-18T02:35:16.528Z,992.83
2018-09-18T02:36:16.525Z,992.84
2018-09-18T02:37:16.515Z,992.83
2018-09-18T02:38:16.517Z,992.82
2018-09-18T02:39:16.502Z,992.82
2018-09-18T02:40:16.499Z,992.84
2018-09-18T02:41:16.488Z,992.84
2018-09-18T02:42:16.473Z,992.85
2018-09-18T02:43:16.471Z,992.87
2018-09-18T02:44:16.460Z,992.88
2018-09-18T02:45:16.500Z,992.86
2018-09-18T02:46:16.446Z,992.86
2018-09-18T02:47:16.438Z,992.85
2018-09-18T02:48:16.426Z,992.94
2018-09-18T02:49:16.418Z,992.91
2018-09-18T02:50:16.416Z,992.93
2018-09-18T02:51:16.404Z,992.94
2018-09-18T02:52:16.395Z,992.94
2018-09-18T02:53:16.397Z,992.92
2018-09-18T02:54:16.386Z,992.94
2018-09-18T02:55:16.370Z,992.87
2018-09-18T02:56:16.363Z,992.91
2018-09-18T02:57:16.361Z,992.90
2018-09-18T02:58:16.361Z,992.89
2018-09-18T02:59:16.341Z,992.89
2018-09-18T03:00:16.329Z,992.88
2018-09-18T03:01:16.326Z,992.87
2018-09-18T03:02:16.317Z,992.88
2018-09-18T03:03:16.305Z,992.88
2018-09-18T03:04:16.585Z,992.88
2018-09-18T03:05:16.790Z,992.92
2018-09-18T03:06:16.923Z,992.88
2018-09-18T03:07:16.517Z,992.89
2018-09-18T03:08:16.472Z,992.90
2018-09-18T03:09:16.455Z,992.87
2018-09-18T03:10:16.408Z,992.84
2018-09-18T03:11:16.383Z,992.92
2018-09-18T03:12:17.049Z,992.90
2018-09-18T03:13:16.637Z,992.87
2018-09-18T03:14:16.395Z,992.86
2018-09-18T03:15:16.532Z,992.89
2018-09-18T03:16:16.413Z,992.87
2018-09-18T03:17:16.507Z,992.91
2018-09-18T03:18:16.436Z,992.86
2018-09-18T03:19:16.568Z,992.88
2018-09-18T03:20:16.436Z,992.85
2018-09-18T03:21:16.472Z,992.85
2018-09-18T03:22:16.549Z,992.83
2018-09-18T03:23:16.489Z,992.85
2018-09-18T03:24:16.695Z,992.83
2018-09-18T03:25:16.593Z,992.84
2018-09-18T03:26:16.528Z,992.79
2018-09-18T03:27:16.746Z,992.82
2018-09-18T17:47:17.481Z,992.07
2018-09-18T17:48:18.081Z,992.06
2018-09-18T17:51:11.506Z,992.15
2018-09-18T17:52:11.711Z,992.13
2018-09-18T17:53:11.252Z,992.10
2018-09-18T17:54:11.179Z,992.14
2018-09-18T17:55:10.997Z,992.16
2018-09-18T17:56:11.459Z,992.16
2018-09-18T17:57:10.970Z,992.24
2018-09-18T17:58:11.513Z,992.16
2018-09-18T17:59:11.210Z,992.18
2018-09-18T18:00:11.261Z,992.19
2018-09-18T18:01:11.063Z,992.15
2018-09-18T18:02:11.153Z,992.24
2018-09-18T18:03:11.112Z,992.19
2018-09-18T18:04:11.017Z,992.29
2018-09-18T18:05:11.530Z,992.26
2018-09-18T18:06:11.250Z,992.31
2018-09-18T18:07:10.892Z,992.27
2018-09-18T18:08:11.287Z,992.28
2018-09-18T18:09:10.886Z,992.33
2018-09-18T18:10:10.937Z,992.37
2018-09-18T18:11:11.418Z,992.41
2018-09-18T18:12:10.934Z,992.41
2018-09-18T18:13:11.072Z,992.42
2018-09-18T18:14:10.998Z,992.44
2018-09-18T18:15:11.066Z,992.46
2018-09-18T18:16:10.985Z,992.43
2018-09-18T18:17:11.335Z,992.53
2018-09-18T18:18:11.318Z,992.56
2018-09-18T18:19:10.810Z,992.59
2018-09-18T18:20:11.296Z,992.64
2018-09-18T18:21:11.424Z,992.57
2018-09-18T18:22:11.068Z,992.63
2018-09-18T18:23:11.096Z,992.61
2018-09-18T18:24:11.112Z,992.65
2018-09-18T18:25:11.140Z,992.67
2018-09-18T18:26:10.736Z,992.68
2018-09-18T18:27:10.892Z,992.69
2018-09-18T18:28:10.734Z,992.72
2018-09-18T18:29:11.230Z,992.71
2018-09-18T18:30:10.808Z,992.70
2018-09-18T18:31:11.269Z,992.72
2018-09-18T18:32:11.103Z,992.72
2018-09-18T18:33:11.680Z,992.73
2018-09-18T18:34:10.674Z,992.75
2018-09-18T18:35:12.587Z,992.73
2018-09-18T18:36:10.669Z,992.74
2018-09-18T18:37:12.961Z,992.76
2018-09-18T18:38:10.767Z,992.79
2018-09-18T18:39:11.106Z,992.80
2018-09-18T18:40:10.868Z,992.80
2018-09-18T18:41:11.050Z,992.79
2018-09-18T18:42:10.720Z,992.79
2018-09-18T18:43:11.410Z,992.79
2018-09-18T18:44:11.213Z,992.81
2018-09-18T18:45:11.188Z,992.84
2018-09-18T18:46:10.542Z,992.80
2018-09-18T18:47:10.754Z,992.86
2018-09-18T18:48:11.257Z,992.85
2018-09-18T18:49:10.817Z,992.84
2018-09-18T18:50:10.838Z,992.85
2018-09-18T18:51:10.734Z,992.85
2018-09-18T18:52:10.574Z,992.88
2018-09-18T18:53:10.830Z,992.90
2018-09-18T18:54:10.861Z,992.87
2018-09-18T18:55:10.998Z,992.90
2018-09-18T18:56:10.962Z,992.90
2018-09-18T18:57:11.103Z,992.89
2018-09-18T18:58:11.076Z,992.92
2018-09-18T18:59:10.977Z,992.92
2018-09-18T19:00:10.672Z,992.94
2018-09-18T19:01:11.000Z,992.89
2018-09-18T19:02:11.348Z,992.91
2018-09-18T19:03:10.787Z,992.89
2018-09-18T19:04:10.919Z,992.94
2018-09-18T19:05:10.822Z,992.90
2018-09-18T19:06:10.848Z,992.90
2018-09-18T19:07:10.785Z,992.92
2018-09-18T19:08:11.068Z,992.93
2018-09-18T19:09:11.185Z,992.91
2018-09-18T19:10:11.092Z,992.93
2018-09-18T19:11:10.746Z,992.98
2018-09-18T19:12:11.242Z,992.98
2018-09-18T19:13:10.539Z,993.02
2018-09-18T19:14:10.521Z,993.05
2018-09-18T19:15:10.337Z,993.11
2018-09-18T19:16:11.014Z,993.09
2018-09-18T19:17:11.263Z,993.10
2018-09-18T19:18:10.792Z,993.12
2018-09-18T19:19:10.861Z,993.17
2018-09-18T19:20:10.700Z,993.14
2018-09-18T19:21:10.621Z,993.14
2018-09-18T19:22:10.738Z,993.17
2018-09-18T19:23:10.638Z,993.11
2018-09-18T19:24:11.511Z,993.09
2018-09-18T19:25:10.570Z,993.08
2018-09-18T19:26:10.824Z,993.10
2018-09-18T19:27:10.673Z,993.13
2018-09-18T19:28:10.455Z,993.12
2018-09-18T19:29:10.222Z,993.18
2018-09-18T19:30:10.373Z,993.10
2018-09-18T19:31:10.303Z,993.14
2018-09-18T19:32:10.424Z,993.13
2018-09-18T19:33:10.922Z,993.14
2018-09-18T19:34:10.438Z,993.13
2018-09-18T19:35:10.170Z,993.12
2018-09-18T19:36:10.356Z,993.09
2018-09-18T19:37:10.237Z,993.09
2018-09-18T19:38:10.760Z,993.08
2018-09-18T19:39:10.291Z,993.10
2018-09-18T19:40:10.174Z,993.10
2018-09-18T19:41:10.467Z,993.10
2018-09-18T19:42:10.388Z,993.08
2018-09-18T19:43:10.573Z,993.11
2018-09-18T19:44:10.223Z,993.08
2018-09-18T19:45:10.829Z,993.08
2018-09-18T19:46:10.419Z,993.10
2018-09-18T19:47:10.481Z,993.08
2018-09-18T19:48:10.078Z,993.07
2018-09-18T19:49:14.351Z,993.12
2018-09-18T19:50:10.704Z,993.06
2018-09-18T19:51:10.163Z,993.10
2018-09-18T19:52:10.306Z,993.11
2018-09-18T19:53:10.372Z,993.12
2018-09-18T19:54:10.577Z,993.09
2018-09-18T19:55:10.184Z,993.09
2018-09-18T19:56:10.351Z,993.13
2018-09-18T19:57:10.491Z,993.14
2018-09-18T19:58:10.578Z,993.09
2018-09-18T19:59:10.149Z,993.12
2018-09-18T20:00:10.129Z,993.12
2018-09-18T20:01:11.156Z,993.10
2018-09-18T20:02:10.380Z,993.12
2018-09-18T20:03:10.047Z,993.14
2018-09-18T20:04:10.113Z,993.13
2018-09-18T20:05:10.303Z,993.16
2018-09-18T20:06:10.432Z,993.14
2018-09-18T20:07:10.031Z,993.17
2018-09-18T20:08:09.909Z,993.20
2018-09-18T20:09:10.856Z,993.19
2018-09-18T20:10:10.212Z,993.20
2018-09-18T20:11:10.473Z,993.17
2018-09-18T20:12:10.993Z,993.18
2018-09-18T20:13:10.102Z,993.23
2018-09-18T20:14:10.082Z,993.23
2018-09-18T20:15:10.052Z,993.21
2018-09-18T20:16:11.158Z,993.26
2018-09-18T20:17:10.347Z,993.26
2018-09-18T20:18:10.287Z,993.24
2018-09-18T20:19:10.551Z,993.23
2018-09-18T20:20:09.861Z,993.23
2018-09-18T20:21:10.174Z,993.25
2018-09-18T20:22:09.931Z,993.25
2018-09-18T20:23:10.674Z,993.31
2018-09-18T20:24:10.185Z,993.27
2018-09-18T20:25:10.382Z,993.29
2018-09-18T20:26:10.395Z,993.31
2018-09-18T20:27:09.834Z,993.30
2018-09-18T20:28:10.496Z,993.32
2018-09-18T20:29:09.921Z,993.32
2018-09-18T20:30:10.082Z,993.36
2018-09-18T20:31:09.939Z,993.36
2018-09-18T20:32:09.941Z,993.35
2018-09-18T20:33:09.756Z,993.37
2018-09-18T20:34:09.975Z,993.38
2018-09-18T20:35:10.521Z,993.37
2018-09-18T20:36:10.721Z,993.32
2018-09-18T20:37:09.820Z,993.38
2018-09-18T20:38:10.304Z,993.39
2018-09-18T20:39:09.965Z,993.37
2018-09-18T20:40:09.682Z,993.39
2018-09-18T20:41:10.350Z,993.41
2018-09-18T20:42:10.272Z,993.37
2018-09-18T20:43:10.119Z,993.42
2018-09-18T20:44:10.099Z,993.44
2018-09-18T20:45:10.716Z,993.45
2018-09-18T20:46:10.122Z,993.48
2018-09-18T20:47:09.669Z,993.54
2018-09-18T20:48:09.651Z,993.47
2018-09-18T20:49:10.017Z,993.48
2018-09-18T20:50:09.825Z,993.51
2018-09-18T20:51:10.124Z,993.51
2018-09-18T20:52:10.666Z,993.54
2018-09-18T20:53:10.073Z,993.52
2018-09-18T20:54:10.033Z,993.56
2018-09-18T20:55:09.570Z,993.57
2018-09-18T20:56:09.735Z,993.63
2018-09-18T20:57:10.002Z,993.60
2018-09-18T20:58:10.057Z,993.65
2018-09-18T20:59:10.434Z,993.65
2018-09-18T21:00:09.997Z,993.72
2018-09-18T21:01:09.765Z,993.70
2018-09-18T21:02:10.052Z,993.70
2018-09-18T21:03:09.910Z,993.72
2018-09-18T21:04:10.101Z,993.72
2018-09-18T21:05:10.337Z,993.69
2018-09-18T21:06:09.487Z,993.70
2018-09-18T21:07:09.711Z,993.70
2018-09-18T21:08:09.773Z,993.73
2018-09-18T21:09:10.085Z,993.74
2018-09-18T21:10:09.459Z,993.76
2018-09-18T21:11:10.129Z,993.76
2018-09-18T21:12:09.581Z,993.78
2018-09-18T21:13:09.564Z,993.78
2018-09-18T21:14:09.573Z,993.81
2018-09-18T21:15:09.535Z,993.83
2018-09-18T21:16:09.518Z,993.78
2018-09-18T21:17:09.571Z,993.80
2018-09-18T21:18:10.028Z,993.86
2018-09-18T21:19:09.383Z,993.85
2018-09-18T21:20:09.957Z,993.90
2018-09-18T21:21:09.445Z,993.90
2018-09-18T21:22:10.863Z,993.91
2018-09-18T21:23:09.963Z,993.91
2018-09-18T21:24:10.499Z,993.93
2018-09-18T21:25:10.053Z,993.95
2018-09-18T21:26:09.328Z,993.91
2018-09-18T21:27:09.774Z,993.92
2018-09-18T21:28:09.661Z,993.92
2018-09-18T21:29:09.663Z,993.92
2018-09-18T21:30:09.722Z,993.95
2018-09-18T21:31:09.280Z,993.89
2018-09-18T21:32:09.287Z,993.87
2018-09-18T21:33:09.275Z,993.90
2018-09-18T21:34:09.267Z,993.88
2018-09-18T21:35:09.292Z,993.90
2018-09-18T21:36:09.238Z,993.86
2018-09-18T21:37:09.250Z,993.92
2018-09-18T21:38:09.321Z,993.89
2018-09-18T21:39:09.220Z,993.87
2018-09-18T21:40:09.213Z,993.91
2018-09-18T21:41:09.209Z,993.86
2018-09-18T21:42:09.199Z,993.86
2018-09-18T21:43:09.207Z,993.91
2018-09-18T21:44:09.185Z,993.90
2018-09-18T21:45:09.171Z,993.85
2018-09-18T21:46:09.165Z,993.95
2018-09-18T21:47:09.157Z,993.92
2018-09-18T21:48:09.155Z,993.90
2018-09-18T21:49:09.145Z,993.89
2018-09-18T21:50:09.175Z,993.93
2018-09-18T21:51:09.144Z,993.93
2018-09-18T21:52:09.122Z,993.94
2018-09-18T21:53:09.123Z,993.93
2018-09-18T21:54:09.108Z,993.84
2018-09-18T21:55:09.121Z,993.92
2018-09-18T21:56:09.087Z,993.85
2018-09-18T21:57:09.084Z,993.90
2018-09-18T21:58:09.093Z,993.90
2018-09-18T21:59:09.070Z,993.87
2018-09-18T22:00:09.061Z,993.91
2018-09-18T22:01:09.058Z,993.92
2018-09-18T22:02:09.046Z,993.93
2018-09-18T22:03:09.036Z,993.93
2018-09-18T22:04:09.048Z,993.98
2018-09-18T22:05:09.022Z,993.96
2018-09-18T22:06:09.027Z,993.96
2018-09-18T22:07:09.047Z,993.98
2018-09-18T22:08:09.033Z,993.99
2018-09-18T22:09:08.994Z,994.00
2018-09-18T22:10:08.983Z,994.00
2018-09-18T22:11:08.978Z,994.00
2018-09-18T22:12:08.997Z,994.02
2018-09-18T22:13:08.972Z,993.99
2018-09-18T22:14:09.001Z,994.02
2018-09-18T22:15:08.990Z,994.00
2018-09-18T22:16:08.993Z,994.01
2018-09-18T22:17:08.944Z,994.06
2018-09-18T22:18:08.928Z,994.02
2018-09-18T22:19:08.917Z,994.04
2018-09-18T22:20:08.914Z,994.01
2018-09-18T22:21:08.904Z,994.04
2018-09-18T22:22:08.941Z,994.05
2018-09-18T22:23:08.901Z,994.04
2018-09-18T22:24:08.882Z,994.04
2018-09-18T22:25:08.883Z,994.06
2018-09-18T22:26:08.863Z,994.07
2018-09-18T22:27:08.862Z,994.08
2018-09-18T22:28:08.863Z,994.15
2018-09-18T22:29:08.842Z,994.12
2018-09-18T22:30:08.837Z,994.12
2018-09-18T22:31:08.834Z,994.12
2018-09-18T22:32:08.847Z,994.12
2018-09-18T22:33:08.813Z,994.09
2018-09-18T22:34:08.806Z,994.08
2018-09-18T22:35:08.788Z,994.06
2018-09-18T22:36:08.786Z,994.06
2018-09-18T22:37:08.785Z,994.07
2018-09-18T22:38:08.785Z,994.08
2018-09-18T22:39:08.766Z,994.09
2018-09-18T22:40:08.761Z,994.09
2018-09-18T22:41:08.754Z,994.09
2018-09-18T22:42:08.745Z,994.06
2018-09-18T22:43:08.815Z,994.04
2018-09-18T22:44:08.729Z,994.04
2018-09-18T22:45:08.718Z,994.05
2018-09-18T22:46:08.711Z,994.07
2018-09-18T22:47:08.710Z,994.04
2018-09-18T22:48:08.696Z,994.01
2018-09-18T22:49:08.686Z,994.05
2018-09-18T22:50:08.680Z,994.04
2018-09-18T22:51:08.688Z,994.08
2018-09-18T22:52:08.666Z,994.05
2018-09-18T22:53:08.661Z,994.01
2018-09-18T22:54:08.651Z,994.04
2018-09-18T22:55:08.646Z,994.05
2018-09-18T22:56:08.660Z,994.08
2018-09-18T22:57:08.641Z,994.06
2018-09-18T22:58:08.628Z,994.09
2018-09-18T22:59:08.611Z,994.08
2018-09-18T23:00:08.605Z,994.09
2018-09-18T23:01:08.598Z,994.09
2018-09-18T23:02:08.589Z,994.11
2018-09-18T23:03:08.588Z,994.12
2018-09-18T23:04:08.574Z,994.09
2018-09-18T23:05:08.574Z,994.07
2018-09-18T23:06:08.558Z,994.07
2018-09-18T23:07:08.574Z,994.08
2018-09-18T23:08:08.542Z,994.08
2018-09-18T23:09:08.536Z,994.10
2018-09-18T23:10:08.529Z,994.11
2018-09-18T23:11:08.525Z,994.09
2018-09-18T23:12:08.513Z,994.12
2018-09-18T23:13:08.504Z,994.18
2018-09-18T23:14:08.503Z,994.17
2018-09-18T23:15:08.495Z,994.21
2018-09-18T23:16:08.487Z,994.15
2018-09-18T23:17:08.474Z,994.16
2018-09-18T23:18:08.465Z,994.16
2018-09-18T23:19:08.458Z,994.12
2018-09-18T23:20:08.451Z,994.12
2018-09-18T23:21:08.445Z,994.13
2018-09-18T23:22:08.438Z,994.18
2018-09-18T23:23:08.443Z,994.17
2018-09-18T23:24:08.420Z,994.18
2018-09-18T23:25:08.424Z,994.24
2018-09-18T23:26:08.407Z,994.20
2018-09-18T23:27:08.396Z,994.26
2018-09-18T23:28:08.399Z,994.23
2018-09-18T23:29:08.381Z,994.31
2018-09-18T23:30:08.382Z,994.29
2018-09-18T23:31:08.367Z,994.31
2018-09-18T23:32:08.360Z,994.29
2018-09-18T23:33:08.358Z,994.29
2018-09-18T23:34:08.345Z,994.30
2018-09-18T23:35:08.336Z,994.33
2018-09-18T23:36:08.330Z,994.32
2018-09-18T23:37:08.326Z,994.30
2018-09-18T23:38:08.320Z,994.33
2018-09-18T23:39:08.304Z,994.36
2018-09-18T23:40:08.304Z,994.36
2018-09-18T23:41:08.293Z,994.33
2018-09-18T23:42:08.346Z,994.32
2018-09-18T23:43:08.276Z,994.31
2018-09-18T23:44:08.266Z,994.35
2018-09-18T23:45:08.260Z,994.30
2018-09-18T23:46:08.256Z,994.33
2018-09-18T23:47:08.246Z,994.32
2018-09-18T23:48:08.236Z,994.34
2018-09-18T23:49:08.226Z,994.36
2018-09-18T23:50:08.222Z,994.36
2018-09-18T23:51:08.231Z,994.39
2018-09-18T23:52:08.210Z,994.38
2018-09-18T23:53:08.202Z,994.42
2018-09-18T23:54:08.199Z,994.41
2018-09-18T23:55:08.182Z,994.42
2018-09-18T23:56:08.175Z,994.47
2018-09-18T23:57:08.175Z,994.44
2018-09-18T23:58:08.162Z,994.42
2018-09-18T23:59:08.147Z,994.42
